Collyer, KS (67631)

10:26 PM CDT on April 26, 2017 (GMT -0500)
Struss Farm | | Change Station
Active Advisory: Frost Advisory

Elev 2507 ft 39.05 °N, 99.96 °W | Updated 38 seconds ago

Clear
Clear
44.8 °F
Feels Like 44 °F
N
3.1
Wind Variable Wind from NNE
Gusts 3.1 mph

Today
High -- | Low -- °F
--% Chance of Precip.
Yesterday
High -- | Low -- °F
Precip. -- in
Pressure 29.74 in
Visibility 10.0 miles
Clouds Clear
Windchill 44 °F
Dew Point 32 °F
Humidity 62%
Rainfall 0.00 in
Snow Depth Not available.
6:48 AM 8:28 PM
New Moon, 1% visible
METAR KHLC 270253Z AUTO 07003KT 10SM CLR 06/00 A2972 RMK AO2 SLP071 T00560000 53007 TSNO
Pressure 29.74 in
Visibility 10.0 miles
Clouds Clear
Windchill 44 °F
Dew Point 32 °F
Humidity 62%
Rainfall 0.00 in
Snow Depth Not available.
6:48 AM 8:28 PM
New Moon, 1% visible
METAR KHLC 270253Z AUTO 07003KT 10SM CLR 06/00 A2972 RMK AO2 SLP071 T00560000 53007 TSNO

Get Your Daily Forecast Email!

Thanks for signing up!

Be on the lookout for a verification email in your inbox.

You'll start receiving severe weather alerts in your inbox..

×

10-Day Weather Forecast

Almanac

Astronomy

Apr. 26, 2017 Rise Set
Actual Time
Civil Twilight
Nautical Twilight
Astronomical Twilight
Moon
Length of Visible Light
Length of Day
Tomorrow will be .
, % of the Moon is Illuminated

Today's Extremes

State Highs State Lows

Community

WunderPhotos

WunderBlog® & News

Nearby

Air Quality

  Air Quality AQ Index Pollutant
Not available.

Snow Depth

Station Depth Elevation

Earthquake Activity

City Distance Mag. Time & Date
Minimum magnitude displayed is 2.5.

Coastal Water Temperatures

Place Temperature

Stations

Nearby Weather Stations

Station Location Temp. Windchill Dew Point Humidity Wind Precip. Elev Updated Type
                   

Watches & Warnings

Frost Advisory
Issued: 3:38 PM CDT Apr. 26, 2017 – National Weather Service

... Frost advisory in effect from 3 am to 8 am CDT Thursday...

The National Weather Service in Dodge City has issued a frost
advisory, which is in effect from 3 am to 8 am CDT Thursday.

* Temperature... in the middle 30s.

* Timing... late tonight through early Thursday.

* Impacts... sensitive vegetation could be damaged.

Precautionary/preparedness actions...

A frost advisory means that widespread frost is expected.
Sensitive outdoor plants may be killed if left uncovered.